WIF158 ENSG-ENBR
Flight info
| Callsign | WIF158 |
|---|---|
| Flight time | 0h 22m |
| Altitude | 12000 |
| Route | LUNUR |
| Aircraft | DH8B/M-SDFGR/S |
Departure
| Time | 2026-04-22 18:49 |
|---|---|
| Airport | Sogndal Airport, Haukåsen (ENSG) |
Arrival
| Time | 2026-04-22 19:11 |
|---|---|
| Airport | Bergen Airport, Flesland (ENBR) |
| Time | Latitude | Longitude | Altitude | Speed | Heading |
|---|---|---|---|---|---|
| 2026-04-22 18:39 | 61.15726 | 7.13818 | 1642 ft | 0 kts | 60° |
| 2026-04-22 18:47 | 61.15708 | 7.13886 | 1642 ft | 11 kts | 153° |
| 2026-04-22 18:47 | 61.15697 | 7.14041 | 1642 ft | 16 kts | 59° |
| 2026-04-22 18:47 | 61.15760 | 7.14263 | 1642 ft | 20 kts | 59° |
| 2026-04-22 18:47 | 61.15829 | 7.14459 | 1642 ft | 13 kts | 42° |
| 2026-04-22 18:48 | 61.15820 | 7.14472 | 1642 ft | 6 kts | 232° |
| 2026-04-22 18:48 | 61.15769 | 7.14297 | 1642 ft | 62 kts | 239° |
| 2026-04-22 18:48 | 61.15382 | 7.12933 | 1681 ft | 145 kts | 239° |
| 2026-04-22 18:48 | 61.14804 | 7.10949 | 2060 ft | 172 kts | 239° |
| 2026-04-22 18:49 | 61.14142 | 7.08809 | 2826 ft | 179 kts | 238° |
| 2026-04-22 18:49 | 61.13448 | 7.06529 | 3321 ft | 195 kts | 239° |
| 2026-04-22 18:49 | 61.12798 | 7.04119 | 4050 ft | 192 kts | 246° |
| 2026-04-22 18:49 | 61.12278 | 7.01580 | 4788 ft | 191 kts | 260° |
| 2026-04-22 18:50 | 61.12446 | 6.98940 | 5500 ft | 184 kts | 299° |
| 2026-04-22 18:50 | 61.13062 | 6.96616 | 6257 ft | 185 kts | 297° |
| 2026-04-22 18:50 | 61.13453 | 6.94048 | 6991 ft | 189 kts | 286° |
| 2026-04-22 18:50 | 61.13704 | 6.91398 | 7680 ft | 191 kts | 287° |
| 2026-04-22 18:51 | 61.14011 | 6.88732 | 8413 ft | 190 kts | 290° |
| 2026-04-22 18:51 | 61.14182 | 6.85996 | 9145 ft | 199 kts | 266° |
| 2026-04-22 18:51 | 61.13592 | 6.83301 | 9914 ft | 214 kts | 236° |
| 2026-04-22 18:51 | 61.12538 | 6.81072 | 10652 ft | 216 kts | 233° |
| 2026-04-22 18:52 | 61.11608 | 6.78637 | 11374 ft | 215 kts | 239° |
| 2026-04-22 18:52 | 61.10714 | 6.76118 | 12106 ft | 219 kts | 238° |
| 2026-04-22 18:52 | 61.09747 | 6.73501 | 12397 ft | 243 kts | 236° |
| 2026-04-22 18:52 | 61.08653 | 6.70685 | 12424 ft | 266 kts | 234° |
| 2026-04-22 18:53 | 61.07438 | 6.67656 | 12431 ft | 280 kts | 234° |
| 2026-04-22 18:53 | 61.06192 | 6.64476 | 12499 ft | 287 kts | 235° |
| 2026-04-22 18:53 | 61.04931 | 6.61221 | 12523 ft | 293 kts | 234° |
| 2026-04-22 18:53 | 61.03626 | 6.57901 | 12527 ft | 297 kts | 234° |
| 2026-04-22 18:54 | 61.02340 | 6.54673 | 12536 ft | 292 kts | 234° |
| 2026-04-22 18:54 | 61.01055 | 6.51419 | 12508 ft | 291 kts | 234° |
| 2026-04-22 18:54 | 60.99785 | 6.48170 | 12466 ft | 291 kts | 234° |
| 2026-04-22 18:54 | 60.98514 | 6.44950 | 12434 ft | 288 kts | 234° |
| 2026-04-22 18:55 | 60.97239 | 6.41749 | 12418 ft | 288 kts | 234° |
| 2026-04-22 18:55 | 60.95968 | 6.38549 | 12414 ft | 288 kts | 234° |
| 2026-04-22 18:55 | 60.94699 | 6.35343 | 12403 ft | 288 kts | 234° |
| 2026-04-22 18:55 | 60.93448 | 6.32195 | 12406 ft | 287 kts | 233° |
| 2026-04-22 18:56 | 60.91929 | 6.29502 | 12405 ft | 292 kts | 213° |
| 2026-04-22 18:56 | 60.90123 | 6.27515 | 12328 ft | 293 kts | 211° |
| 2026-04-22 18:56 | 60.88369 | 6.25466 | 12214 ft | 287 kts | 215° |
| 2026-04-22 18:56 | 60.86717 | 6.23195 | 12106 ft | 283 kts | 217° |
| 2026-04-22 18:57 | 60.85095 | 6.20923 | 11985 ft | 281 kts | 216° |
| 2026-04-22 18:57 | 60.83479 | 6.18761 | 11855 ft | 281 kts | 216° |
| 2026-04-22 18:57 | 60.81825 | 6.16636 | 11736 ft | 281 kts | 214° |
| 2026-04-22 18:57 | 60.80160 | 6.14523 | 11608 ft | 280 kts | 215° |
| 2026-04-22 18:58 | 60.78520 | 6.12393 | 11486 ft | 279 kts | 216° |
| 2026-04-22 18:58 | 60.76881 | 6.10248 | 11368 ft | 279 kts | 215° |
| 2026-04-22 18:58 | 60.75234 | 6.08126 | 11247 ft | 279 kts | 215° |
| 2026-04-22 18:58 | 60.73583 | 6.06026 | 11122 ft | 279 kts | 215° |
| 2026-04-22 18:59 | 60.71943 | 6.03919 | 11008 ft | 279 kts | 216° |
| 2026-04-22 18:59 | 60.70326 | 6.01828 | 10884 ft | 278 kts | 215° |
| 2026-04-22 18:59 | 60.68684 | 5.99725 | 10778 ft | 280 kts | 215° |
| 2026-04-22 18:59 | 60.67030 | 5.97608 | 10670 ft | 280 kts | 216° |
| 2026-04-22 19:00 | 60.65385 | 5.95483 | 10550 ft | 280 kts | 215° |
| 2026-04-22 19:00 | 60.63736 | 5.93405 | 10433 ft | 277 kts | 215° |
| 2026-04-22 19:00 | 60.62092 | 5.91337 | 10322 ft | 277 kts | 216° |
| 2026-04-22 19:00 | 60.60467 | 5.89230 | 10174 ft | 277 kts | 216° |
| 2026-04-22 19:01 | 60.58836 | 5.87129 | 10043 ft | 277 kts | 215° |
| 2026-04-22 19:01 | 60.57214 | 5.85085 | 9918 ft | 276 kts | 215° |
| 2026-04-22 19:01 | 60.55577 | 5.83017 | 9794 ft | 276 kts | 215° |
| 2026-04-22 19:01 | 60.53946 | 5.80942 | 9664 ft | 276 kts | 215° |
| 2026-04-22 19:02 | 60.52320 | 5.78872 | 9534 ft | 275 kts | 215° |
| 2026-04-22 19:02 | 60.50690 | 5.76812 | 9402 ft | 276 kts | 215° |
| 2026-04-22 19:02 | 60.49087 | 5.74790 | 9283 ft | 274 kts | 215° |
| 2026-04-22 19:02 | 60.47484 | 5.72722 | 9173 ft | 273 kts | 215° |
| 2026-04-22 19:03 | 60.45861 | 5.70706 | 9029 ft | 273 kts | 214° |
| 2026-04-22 19:03 | 60.44234 | 5.68700 | 8907 ft | 274 kts | 215° |
| 2026-04-22 19:03 | 60.42622 | 5.66648 | 8776 ft | 273 kts | 216° |
| 2026-04-22 19:03 | 60.41005 | 5.64587 | 8658 ft | 274 kts | 215° |
| 2026-04-22 19:04 | 60.39401 | 5.62590 | 8526 ft | 274 kts | 215° |
| 2026-04-22 19:04 | 60.37777 | 5.60572 | 8341 ft | 275 kts | 215° |
| 2026-04-22 19:04 | 60.36138 | 5.58508 | 8105 ft | 278 kts | 215° |
| 2026-04-22 19:04 | 60.34490 | 5.56439 | 7851 ft | 280 kts | 214° |
| 2026-04-22 19:05 | 60.32830 | 5.54379 | 7631 ft | 280 kts | 214° |
| 2026-04-22 19:05 | 60.31157 | 5.52281 | 7192 ft | 283 kts | 214° |
| 2026-04-22 19:05 | 60.29505 | 5.50220 | 6730 ft | 273 kts | 214° |
| 2026-04-22 19:05 | 60.27905 | 5.48239 | 6216 ft | 266 kts | 214° |
| 2026-04-22 19:06 | 60.26370 | 5.46313 | 5723 ft | 260 kts | 214° |
| 2026-04-22 19:06 | 60.24836 | 5.44425 | 5206 ft | 255 kts | 210° |
| 2026-04-22 19:06 | 60.23276 | 5.42810 | 4673 ft | 249 kts | 207° |
| 2026-04-22 19:07 | 60.20275 | 5.39860 | 3985 ft | 226 kts | 207° |
| 2026-04-22 19:07 | 60.19051 | 5.38046 | 3955 ft | 213 kts | 234° |
| 2026-04-22 19:07 | 60.18352 | 5.35565 | 3795 ft | 202 kts | 251° |
| 2026-04-22 19:07 | 60.18076 | 5.32853 | 3447 ft | 200 kts | 275° |
| 2026-04-22 19:08 | 60.18267 | 5.30117 | 3141 ft | 194 kts | 291° |
| 2026-04-22 19:08 | 60.18861 | 5.27711 | 2656 ft | 189 kts | 312° |
| 2026-04-22 19:08 | 60.19760 | 5.25911 | 2101 ft | 177 kts | 326° |
| 2026-04-22 19:08 | 60.20798 | 5.24742 | 1572 ft | 170 kts | 342° |
| 2026-04-22 19:09 | 60.21878 | 5.24248 | 1464 ft | 149 kts | 352° |
| 2026-04-22 19:09 | 60.22875 | 5.23950 | 1250 ft | 138 kts | 351° |
| 2026-04-22 19:09 | 60.23489 | 5.23740 | 1146 ft | 132 kts | 350° |
| 2026-04-22 19:09 | 60.24703 | 5.23332 | 852 ft | 127 kts | 349° |
| 2026-04-22 19:10 | 60.25555 | 5.23083 | 747 ft | 120 kts | 348° |
| 2026-04-22 19:10 | 60.26364 | 5.22803 | 623 ft | 117 kts | 348° |
| 2026-04-22 19:10 | 60.27183 | 5.22523 | 439 ft | 122 kts | 349° |
| 2026-04-22 19:10 | 60.28039 | 5.22250 | 233 ft | 125 kts | 348° |
| 2026-04-22 19:11 | 60.28830 | 5.21982 | 160 ft | 102 kts | 351° |
| 2026-04-22 19:11 | 60.29228 | 5.21855 | 154 ft | 42 kts | 349° |
| 2026-04-22 19:11 | 60.29372 | 5.21838 | 151 ft | 17 kts | 43° |
| 2026-04-22 19:11 | 60.29396 | 5.22081 | 155 ft | 14 kts | 96° |
| 2026-04-22 19:12 | 60.29396 | 5.22103 | 156 ft | 0 kts | 84° |
| 2026-04-22 19:12 | 60.29400 | 5.22182 | 158 ft | 12 kts | 94° |
| 2026-04-22 19:12 | 60.29320 | 5.22264 | 164 ft | 15 kts | 169° |
| 2026-04-22 19:12 | 60.29209 | 5.22303 | 171 ft | 16 kts | 169° |
| 2026-04-22 19:13 | 60.29112 | 5.22338 | 175 ft | 14 kts | 171° |
| 2026-04-22 19:13 | 60.29034 | 5.22425 | 172 ft | 14 kts | 89° |
| 2026-04-22 19:13 | 60.29048 | 5.22630 | 172 ft | 15 kts | 82° |
| 2026-04-22 19:13 | 60.29047 | 5.22787 | 172 ft | 7 kts | 76° |
| 2026-04-22 19:14 | 60.29078 | 5.22860 | 173 ft | 6 kts | 47° |
| 2026-04-22 19:14 | 60.29085 | 5.22876 | 173 ft | 0 kts | 47° |